Voornediep — PBEX — position and weather

sailwx.info

Track history (hours):
 
Tides and Currents Weather Stations Pressure Air Temp Water Temp Dewpoint Dewpoint Depression Visibility Wind Speed Wind Dir Waves Ship Positions

Voornediep

Last reported at 2017-Sep-18 17:10 UTC. Time now 2017-Sep-19 22:41 UTC.
Position N 38°05' E 024°08'.

Length 120 m; draft 6.9 m.

Type: Ship. MMSI: 246210000.

Date/timePositionNaut miles runAvg speedWind from/ knotsBaromVisibWave heightAir tempDewpointWater temp
2017-Sep-18 17:10N 38°05' E 024°08'4011.9
2017-Sep-18 13:47N 37°39' E 024°48'512.5
2017-Sep-18 13:25N 37°36' E 024°52'612.5
2017-Sep-18 12:58N 37°32' E 024°58'612.4
2017-Sep-18 12:30N 37°28' E 025°03'612.3
2017-Sep-18 12:00N 37°24' E 025°08'612.4
2017-Sep-18 11:30N 37°20' E 025°14'612.1
2017-Sep-18 11:00N 37°18' E 025°21'612.9
2017-Sep-18 10:30N 37°16' E 025°29'912.7
2017-Sep-18 09:49N 37°14' E 025°39'412.4
2017-Sep-18 09:31N 37°13' E 025°44'  
Track history (hours):
 
Tides and Currents Weather Stations Pressure Air Temp Water Temp Dewpoint Dewpoint Depression Visibility Wind Speed Wind Dir Waves Ship Positions

Voornediep

Last reported at 2017-Sep-18 17:10 UTC. Time now 2017-Sep-19 22:41 UTC.
Position N 38°05' E 024°08'.

Length 120 m; draft 6.9 m.

Type: Ship. MMSI: 246210000.

Date/timePositionNaut miles runAvg speedWind from/ knotsBaromVisibWave heightAir tempDewpointWater temp
2017-Sep-18 17:10N 38°05' E 024°08'4011.9
2017-Sep-18 13:47N 37°39' E 024°48'512.5
2017-Sep-18 13:25N 37°36' E 024°52'612.5
2017-Sep-18 12:58N 37°32' E 024°58'612.4
2017-Sep-18 12:30N 37°28' E 025°03'612.3
2017-Sep-18 12:00N 37°24' E 025°08'612.4
2017-Sep-18 11:30N 37°20' E 025°14'612.1
2017-Sep-18 11:00N 37°18' E 025°21'612.9
2017-Sep-18 10:30N 37°16' E 025°29'912.7
2017-Sep-18 09:49N 37°14' E 025°39'412.4
2017-Sep-18 09:31N 37°13' E 025°44'  

Dump ship's entire track history